sensor_id;sensor_type;location;lat;lon;timestamp;temperature;humidity
12817;DHT22;6473;51.552;6.716;2023-10-09T00:02:07;13.90;99.90
12817;DHT22;6473;51.552;6.716;2023-10-09T00:04:35;13.80;99.90
12817;DHT22;6473;51.552;6.716;2023-10-09T00:07:06;13.80;99.90
12817;DHT22;6473;51.552;6.716;2023-10-09T00:09:34;13.80;99.90
12817;DHT22;6473;51.552;6.716;2023-10-09T00:12:14;16.20;99.90
12817;DHT22;6473;51.552;6.716;2023-10-09T00:14:48;13.70;99.90
12817;DHT22;6473;51.552;6.716;2023-10-09T00:17:16;13.50;99.90
12817;DHT22;6473;51.552;6.716;2023-10-09T00:19:44;13.40;99.90
12817;DHT22;6473;51.552;6.716;2023-10-09T00:22:13;13.40;99.90
12817;DHT22;6473;51.552;6.716;2023-10-09T00:24:52;15.10;99.90
12817;DHT22;6473;51.552;6.716;2023-10-09T00:27:39;13.40;99.90
12817;DHT22;6473;51.552;6.716;2023-10-09T00:30:09;13.50;99.90
12817;DHT22;6473;51.552;6.716;2023-10-09T00:32:41;13.50;99.90
12817;DHT22;6473;51.552;6.716;2023-10-09T00:35:18;13.60;99.90
12817;DHT22;6473;51.552;6.716;2023-10-09T00:38:06;15.40;99.90
12817;DHT22;6473;51.552;6.716;2023-10-09T00:40:41;13.80;99.90
12817;DHT22;6473;51.552;6.716;2023-10-09T00:43:23;13.90;99.90
12817;DHT22;6473;51.552;6.716;2023-10-09T00:45:54;13.90;99.90
12817;DHT22;6473;51.552;6.716;2023-10-09T00:48:26;13.90;99.90
12817;DHT22;6473;51.552;6.716;2023-10-09T00:50:58;14.00;99.90
12817;DHT22;6473;51.552;6.716;2023-10-09T00:53:26;17.00;99.90
12817;DHT22;6473;51.552;6.716;2023-10-09T00:55:59;15.30;99.90
12817;DHT22;6473;51.552;6.716;2023-10-09T00:58:46;14.00;99.90
12817;DHT22;6473;51.552;6.716;2023-10-09T01:01:20;16.10;99.90
12817;DHT22;6473;51.552;6.716;2023-10-09T01:03:53;14.00;99.90
12817;DHT22;6473;51.552;6.716;2023-10-09T01:06:22;14.60;99.90
12817;DHT22;6473;51.552;6.716;2023-10-09T01:08:53;14.10;99.90
12817;DHT22;6473;51.552;6.716;2023-10-09T01:11:35;14.10;99.90
12817;DHT22;6473;51.552;6.716;2023-10-09T01:14:14;14.10;99.90
12817;DHT22;6473;51.552;6.716;2023-10-09T01:16:41;15.10;99.90
12817;DHT22;6473;51.552;6.716;2023-10-09T01:19:09;14.10;99.90
12817;DHT22;6473;51.552;6.716;2023-10-09T01:21:50;14.00;99.90
12817;DHT22;6473;51.552;6.716;2023-10-09T01:24:19;15.10;99.90
12817;DHT22;6473;51.552;6.716;2023-10-09T01:26:47;13.90;99.90
12817;DHT22;6473;51.552;6.716;2023-10-09T01:29:16;13.80;99.90
12817;DHT22;6473;51.552;6.716;2023-10-09T01:31:45;15.30;99.90
12817;DHT22;6473;51.552;6.716;2023-10-09T01:34:18;14.60;99.90
12817;DHT22;6473;51.552;6.716;2023-10-09T01:36:51;15.30;99.90
12817;DHT22;6473;51.552;6.716;2023-10-09T01:39:22;13.80;99.90
12817;DHT22;6473;51.552;6.716;2023-10-09T01:41:54;13.80;99.90
12817;DHT22;6473;51.552;6.716;2023-10-09T01:44:26;13.80;99.90
12817;DHT22;6473;51.552;6.716;2023-10-09T01:46:56;13.80;99.90
12817;DHT22;6473;51.552;6.716;2023-10-09T01:49:24;15.10;99.90
12817;DHT22;6473;51.552;6.716;2023-10-09T01:51:57;13.80;99.90
12817;DHT22;6473;51.552;6.716;2023-10-09T01:54:37;13.70;99.90
12817;DHT22;6473;51.552;6.716;2023-10-09T01:57:10;13.70;99.90
12817;DHT22;6473;51.552;6.716;2023-10-09T01:59:49;13.70;99.90
12817;DHT22;6473;51.552;6.716;2023-10-09T02:02:20;13.70;99.90
12817;DHT22;6473;51.552;6.716;2023-10-09T02:05:00;13.70;99.90
12817;DHT22;6473;51.552;6.716;2023-10-09T02:07:40;13.70;99.90
12817;DHT22;6473;51.552;6.716;2023-10-09T02:10:23;13.80;99.90
12817;DHT22;6473;51.552;6.716;2023-10-09T02:12:58;15.00;99.90
12817;DHT22;6473;51.552;6.716;2023-10-09T02:15:26;13.70;99.90
12817;DHT22;6473;51.552;6.716;2023-10-09T02:18:18;13.70;99.90
12817;DHT22;6473;51.552;6.716;2023-10-09T02:20:52;13.70;99.90
12817;DHT22;6473;51.552;6.716;2023-10-09T02:23:26;13.70;99.90
12817;DHT22;6473;51.552;6.716;2023-10-09T02:26:06;14.10;99.90
12817;DHT22;6473;51.552;6.716;2023-10-09T02:28:34;13.80;99.90
12817;DHT22;6473;51.552;6.716;2023-10-09T02:31:09;13.80;99.90
12817;DHT22;6473;51.552;6.716;2023-10-09T02:33:36;15.10;99.90
12817;DHT22;6473;51.552;6.716;2023-10-09T02:36:05;13.80;99.90
12817;DHT22;6473;51.552;6.716;2023-10-09T02:38:32;13.80;99.90
12817;DHT22;6473;51.552;6.716;2023-10-09T02:41:01;13.80;99.90
12817;DHT22;6473;51.552;6.716;2023-10-09T02:43:46;13.90;99.90
12817;DHT22;6473;51.552;6.716;2023-10-09T02:46:14;13.10;99.90
12817;DHT22;6473;51.552;6.716;2023-10-09T02:48:43;15.40;99.90
12817;DHT22;6473;51.552;6.716;2023-10-09T02:51:14;15.30;99.90
12817;DHT22;6473;51.552;6.716;2023-10-09T02:53:47;14.00;99.90
12817;DHT22;6473;51.552;6.716;2023-10-09T02:56:15;14.00;99.90
12817;DHT22;6473;51.552;6.716;2023-10-09T02:58:50;14.80;99.90
12817;DHT22;6473;51.552;6.716;2023-10-09T03:01:17;15.30;99.90
12817;DHT22;6473;51.552;6.716;2023-10-09T03:03:45;14.10;99.90
12817;DHT22;6473;51.552;6.716;2023-10-09T03:06:13;14.10;99.90
12817;DHT22;6473;51.552;6.716;2023-10-09T03:08:54;14.20;99.90
12817;DHT22;6473;51.552;6.716;2023-10-09T03:11:21;15.70;99.90
12817;DHT22;6473;51.552;6.716;2023-10-09T03:13:50;14.50;99.90
12817;DHT22;6473;51.552;6.716;2023-10-09T03:16:18;14.20;99.90
12817;DHT22;6473;51.552;6.716;2023-10-09T03:18:46;15.40;99.90
12817;DHT22;6473;51.552;6.716;2023-10-09T03:21:13;14.20;99.90
12817;DHT22;6473;51.552;6.716;2023-10-09T03:23:46;15.40;99.90
12817;DHT22;6473;51.552;6.716;2023-10-09T03:26:15;16.30;99.90
12817;DHT22;6473;51.552;6.716;2023-10-09T03:28:43;17.30;99.90
12817;DHT22;6473;51.552;6.716;2023-10-09T03:31:12;16.10;99.90
12817;DHT22;6473;51.552;6.716;2023-10-09T03:33:39;16.90;99.90
12817;DHT22;6473;51.552;6.716;2023-10-09T03:36:06;14.50;99.90
12817;DHT22;6473;51.552;6.716;2023-10-09T03:38:35;14.50;99.90
12817;DHT22;6473;51.552;6.716;2023-10-09T03:41:02;14.50;99.90
12817;DHT22;6473;51.552;6.716;2023-10-09T03:43:33;15.10;99.90
12817;DHT22;6473;51.552;6.716;2023-10-09T03:46:05;14.50;99.90
12817;DHT22;6473;51.552;6.716;2023-10-09T03:48:41;14.50;99.90
12817;DHT22;6473;51.552;6.716;2023-10-09T03:51:12;14.50;99.90
12817;DHT22;6473;51.552;6.716;2023-10-09T03:53:41;14.50;99.90
12817;DHT22;6473;51.552;6.716;2023-10-09T03:56:08;14.50;99.90
12817;DHT22;6473;51.552;6.716;2023-10-09T03:58:39;16.10;99.90
12817;DHT22;6473;51.552;6.716;2023-10-09T04:01:09;15.30;99.90
12817;DHT22;6473;51.552;6.716;2023-10-09T04:03:44;14.50;99.90
12817;DHT22;6473;51.552;6.716;2023-10-09T04:06:11;14.50;99.90
12817;DHT22;6473;51.552;6.716;2023-10-09T04:08:38;14.90;99.90
12817;DHT22;6473;51.552;6.716;2023-10-09T04:11:13;14.50;99.90
12817;DHT22;6473;51.552;6.716;2023-10-09T04:13:43;14.90;99.90
12817;DHT22;6473;51.552;6.716;2023-10-09T04:16:11;14.50;99.90
12817;DHT22;6473;51.552;6.716;2023-10-09T04:19:01;14.50;99.90
12817;DHT22;6473;51.552;6.716;2023-10-09T04:21:37;14.50;99.90
12817;DHT22;6473;51.552;6.716;2023-10-09T04:24:04;14.60;99.90
12817;DHT22;6473;51.552;6.716;2023-10-09T04:26:50;14.50;99.90
12817;DHT22;6473;51.552;6.716;2023-10-09T04:29:23;14.60;99.90
12817;DHT22;6473;51.552;6.716;2023-10-09T04:31:53;14.60;99.90
12817;DHT22;6473;51.552;6.716;2023-10-09T04:34:22;14.60;99.90
12817;DHT22;6473;51.552;6.716;2023-10-09T04:37:01;16.30;99.90
12817;DHT22;6473;51.552;6.716;2023-10-09T04:39:45;16.60;99.90
12817;DHT22;6473;51.552;6.716;2023-10-09T04:42:27;14.90;99.90
12817;DHT22;6473;51.552;6.716;2023-10-09T04:45:04;15.30;99.90
12817;DHT22;6473;51.552;6.716;2023-10-09T04:48:11;14.70;99.90
12817;DHT22;6473;51.552;6.716;2023-10-09T04:50:59;14.70;99.90
12817;DHT22;6473;51.552;6.716;2023-10-09T04:54:00;15.90;99.90
12817;DHT22;6473;51.552;6.716;2023-10-09T04:56:39;16.90;99.90
12817;DHT22;6473;51.552;6.716;2023-10-09T04:59:18;14.80;99.90
12817;DHT22;6473;51.552;6.716;2023-10-09T05:01:50;14.90;99.90
12817;DHT22;6473;51.552;6.716;2023-10-09T05:04:24;15.00;99.90
12817;DHT22;6473;51.552;6.716;2023-10-09T05:07:06;15.00;99.90
12817;DHT22;6473;51.552;6.716;2023-10-09T05:09:47;14.90;99.90
12817;DHT22;6473;51.552;6.716;2023-10-09T05:12:23;14.90;99.90
12817;DHT22;6473;51.552;6.716;2023-10-09T05:14:53;14.90;99.90
12817;DHT22;6473;51.552;6.716;2023-10-09T05:17:34;14.90;99.90
12817;DHT22;6473;51.552;6.716;2023-10-09T05:20:04;15.00;99.90
12817;DHT22;6473;51.552;6.716;2023-10-09T05:23:05;15.00;99.90
12817;DHT22;6473;51.552;6.716;2023-10-09T05:25:49;15.00;99.90
12817;DHT22;6473;51.552;6.716;2023-10-09T05:28:24;17.10;99.90
12817;DHT22;6473;51.552;6.716;2023-10-09T05:31:32;15.00;99.90
12817;DHT22;6473;51.552;6.716;2023-10-09T05:34:22;17.10;99.90
12817;DHT22;6473;51.552;6.716;2023-10-09T05:36:48;15.20;99.90
12817;DHT22;6473;51.552;6.716;2023-10-09T05:39:15;15.00;99.90
12817;DHT22;6473;51.552;6.716;2023-10-09T05:41:47;15.00;99.90
12817;DHT22;6473;51.552;6.716;2023-10-09T05:44:25;15.90;99.90
12817;DHT22;6473;51.552;6.716;2023-10-09T05:47:11;16.20;99.90
12817;DHT22;6473;51.552;6.716;2023-10-09T05:49:57;15.40;99.90
12817;DHT22;6473;51.552;6.716;2023-10-09T05:52:48;14.90;99.90
12817;DHT22;6473;51.552;6.716;2023-10-09T05:55:33;14.90;99.90
12817;DHT22;6473;51.552;6.716;2023-10-09T05:58:34;15.00;99.90
12817;DHT22;6473;51.552;6.716;2023-10-09T06:01:24;14.90;99.90
12817;DHT22;6473;51.552;6.716;2023-10-09T06:04:10;15.60;99.90
12817;DHT22;6473;51.552;6.716;2023-10-09T06:06:42;15.00;99.90
12817;DHT22;6473;51.552;6.716;2023-10-09T06:09:13;16.50;99.90
12817;DHT22;6473;51.552;6.716;2023-10-09T06:12:15;16.60;99.90
12817;DHT22;6473;51.552;6.716;2023-10-09T06:14:59;14.90;99.90
12817;DHT22;6473;51.552;6.716;2023-10-09T06:17:44;15.00;99.90
12817;DHT22;6473;51.552;6.716;2023-10-09T06:20:17;15.00;99.90
12817;DHT22;6473;51.552;6.716;2023-10-09T06:23:26;15.00;99.90
12817;DHT22;6473;51.552;6.716;2023-10-09T06:26:12;15.70;99.90
12817;DHT22;6473;51.552;6.716;2023-10-09T06:28:50;15.00;99.90
12817;DHT22;6473;51.552;6.716;2023-10-09T06:31:36;15.00;99.90
12817;DHT22;6473;51.552;6.716;2023-10-09T06:34:23;15.30;99.90
12817;DHT22;6473;51.552;6.716;2023-10-09T06:37:00;15.00;99.90
12817;DHT22;6473;51.552;6.716;2023-10-09T06:39:43;16.80;99.90
12817;DHT22;6473;51.552;6.716;2023-10-09T06:42:32;15.10;99.90
12817;DHT22;6473;51.552;6.716;2023-10-09T06:45:11;15.50;99.90
12817;DHT22;6473;51.552;6.716;2023-10-09T06:47:42;14.20;99.90
12817;DHT22;6473;51.552;6.716;2023-10-09T06:50:19;15.30;99.90
12817;DHT22;6473;51.552;6.716;2023-10-09T06:53:09;15.20;99.90
12817;DHT22;6473;51.552;6.716;2023-10-09T06:55:46;15.20;99.90
12817;DHT22;6473;51.552;6.716;2023-10-09T06:58:15;16.60;99.90
12817;DHT22;6473;51.552;6.716;2023-10-09T07:00:48;15.30;99.90
12817;DHT22;6473;51.552;6.716;2023-10-09T07:03:39;15.40;99.90
12817;DHT22;6473;51.552;6.716;2023-10-09T07:06:18;15.30;99.90
12817;DHT22;6473;51.552;6.716;2023-10-09T07:08:52;15.30;99.90
12817;DHT22;6473;51.552;6.716;2023-10-09T07:11:42;15.40;99.90
12817;DHT22;6473;51.552;6.716;2023-10-09T07:14:26;15.40;99.90
12817;DHT22;6473;51.552;6.716;2023-10-09T07:17:13;15.40;99.90
12817;DHT22;6473;51.552;6.716;2023-10-09T07:19:48;15.50;99.90
12817;DHT22;6473;51.552;6.716;2023-10-09T07:22:32;15.50;99.90
12817;DHT22;6473;51.552;6.716;2023-10-09T07:25:07;15.60;99.90
12817;DHT22;6473;51.552;6.716;2023-10-09T07:27:53;15.60;99.90
12817;DHT22;6473;51.552;6.716;2023-10-09T07:30:21;15.60;99.90
12817;DHT22;6473;51.552;6.716;2023-10-09T07:33:04;17.40;99.90
12817;DHT22;6473;51.552;6.716;2023-10-09T07:35:43;15.70;99.90
12817;DHT22;6473;51.552;6.716;2023-10-09T07:38:24;15.80;99.90
12817;DHT22;6473;51.552;6.716;2023-10-09T07:40:56;16.30;99.90
12817;DHT22;6473;51.552;6.716;2023-10-09T07:43:35;17.00;99.90
12817;DHT22;6473;51.552;6.716;2023-10-09T07:46:05;15.80;99.90
12817;DHT22;6473;51.552;6.716;2023-10-09T07:48:50;15.90;99.90
12817;DHT22;6473;51.552;6.716;2023-10-09T07:51:18;15.90;99.90
12817;DHT22;6473;51.552;6.716;2023-10-09T07:53:49;15.90;99.90
12817;DHT22;6473;51.552;6.716;2023-10-09T07:56:24;17.60;99.90
12817;DHT22;6473;51.552;6.716;2023-10-09T07:58:55;16.00;99.90
12817;DHT22;6473;51.552;6.716;2023-10-09T08:01:26;16.10;99.90
12817;DHT22;6473;51.552;6.716;2023-10-09T08:04:01;16.20;99.90
12817;DHT22;6473;51.552;6.716;2023-10-09T08:06:30;16.30;99.90
12817;DHT22;6473;51.552;6.716;2023-10-09T08:09:08;16.20;99.90
12817;DHT22;6473;51.552;6.716;2023-10-09T08:11:48;16.30;99.90
12817;DHT22;6473;51.552;6.716;2023-10-09T08:14:40;16.30;99.90
12817;DHT22;6473;51.552;6.716;2023-10-09T08:17:11;16.20;99.90
12817;DHT22;6473;51.552;6.716;2023-10-09T08:19:42;17.60;99.90
12817;DHT22;6473;51.552;6.716;2023-10-09T08:22:26;16.30;99.90
12817;DHT22;6473;51.552;6.716;2023-10-09T08:25:16;16.20;99.90
12817;DHT22;6473;51.552;6.716;2023-10-09T08:28:00;16.10;99.90
12817;DHT22;6473;51.552;6.716;2023-10-09T08:30:41;16.30;99.90
12817;DHT22;6473;51.552;6.716;2023-10-09T08:33:14;17.70;99.90
12817;DHT22;6473;51.552;6.716;2023-10-09T08:35:58;16.20;99.90
12817;DHT22;6473;51.552;6.716;2023-10-09T08:38:30;17.80;99.90
12817;DHT22;6473;51.552;6.716;2023-10-09T08:41:10;16.20;99.90
12817;DHT22;6473;51.552;6.716;2023-10-09T08:43:48;17.70;99.90
12817;DHT22;6473;51.552;6.716;2023-10-09T08:46:20;16.10;99.90
12817;DHT22;6473;51.552;6.716;2023-10-09T08:48:48;16.10;99.90
12817;DHT22;6473;51.552;6.716;2023-10-09T08:51:17;17.30;99.90
12817;DHT22;6473;51.552;6.716;2023-10-09T08:53:44;16.10;99.90
12817;DHT22;6473;51.552;6.716;2023-10-09T08:56:12;16.10;99.90
12817;DHT22;6473;51.552;6.716;2023-10-09T08:58:41;16.20;99.90
12817;DHT22;6473;51.552;6.716;2023-10-09T09:01:10;16.40;99.90
12817;DHT22;6473;51.552;6.716;2023-10-09T09:03:42;16.50;99.90
12817;DHT22;6473;51.552;6.716;2023-10-09T09:06:10;16.60;99.90
12817;DHT22;6473;51.552;6.716;2023-10-09T09:08:37;16.90;99.90
12817;DHT22;6473;51.552;6.716;2023-10-09T09:11:04;17.30;99.90
12817;DHT22;6473;51.552;6.716;2023-10-09T09:13:44;17.40;99.90
12817;DHT22;6473;51.552;6.716;2023-10-09T09:16:17;17.50;99.90
12817;DHT22;6473;51.552;6.716;2023-10-09T09:18:54;17.60;99.90
12817;DHT22;6473;51.552;6.716;2023-10-09T09:21:26;17.70;99.90
12817;DHT22;6473;51.552;6.716;2023-10-09T09:23:58;17.80;99.90
12817;DHT22;6473;51.552;6.716;2023-10-09T09:26:34;17.80;99.90
12817;DHT22;6473;51.552;6.716;2023-10-09T09:29:04;17.70;99.90
12817;DHT22;6473;51.552;6.716;2023-10-09T09:31:33;17.70;99.90
12817;DHT22;6473;51.552;6.716;2023-10-09T09:34:05;17.80;99.90
12817;DHT22;6473;51.552;6.716;2023-10-09T09:36:53;17.80;99.90
12817;DHT22;6473;51.552;6.716;2023-10-09T09:39:22;17.90;99.90
12817;DHT22;6473;51.552;6.716;2023-10-09T09:41:55;17.80;99.90
12817;DHT22;6473;51.552;6.716;2023-10-09T09:44:23;20.00;99.90
12817;DHT22;6473;51.552;6.716;2023-10-09T09:46:59;18.10;99.90
12817;DHT22;6473;51.552;6.716;2023-10-09T09:49:27;18.30;99.90
12817;DHT22;6473;51.552;6.716;2023-10-09T09:52:00;18.30;99.90
12817;DHT22;6473;51.552;6.716;2023-10-09T09:54:28;18.30;99.90
12817;DHT22;6473;51.552;6.716;2023-10-09T09:57:00;18.20;99.90
12817;DHT22;6473;51.552;6.716;2023-10-09T09:59:38;18.90;99.90
12817;DHT22;6473;51.552;6.716;2023-10-09T10:02:20;18.60;99.90
12817;DHT22;6473;51.552;6.716;2023-10-09T10:04:54;18.60;99.90
12817;DHT22;6473;51.552;6.716;2023-10-09T10:07:24;18.50;99.90
12817;DHT22;6473;51.552;6.716;2023-10-09T10:09:51;19.60;99.90
12817;DHT22;6473;51.552;6.716;2023-10-09T10:12:51;18.70;99.90
12817;DHT22;6473;51.552;6.716;2023-10-09T10:15:58;18.80;99.90
12817;DHT22;6473;51.552;6.716;2023-10-09T10:18:32;18.80;99.90
12817;DHT22;6473;51.552;6.716;2023-10-09T10:21:11;18.90;99.90
12817;DHT22;6473;51.552;6.716;2023-10-09T10:23:42;18.90;99.90
12817;DHT22;6473;51.552;6.716;2023-10-09T10:26:20;18.90;99.90
12817;DHT22;6473;51.552;6.716;2023-10-09T10:29:13;18.90;99.90
12817;DHT22;6473;51.552;6.716;2023-10-09T10:31:58;19.20;99.90
12817;DHT22;6473;51.552;6.716;2023-10-09T10:34:55;19.30;99.90
12817;DHT22;6473;51.552;6.716;2023-10-09T10:37:34;19.30;99.90
12817;DHT22;6473;51.552;6.716;2023-10-09T10:40:04;19.30;99.90
12817;DHT22;6473;51.552;6.716;2023-10-09T10:42:47;19.20;99.90
12817;DHT22;6473;51.552;6.716;2023-10-09T10:45:31;19.40;99.90
12817;DHT22;6473;51.552;6.716;2023-10-09T10:48:01;19.50;99.90
12817;DHT22;6473;51.552;6.716;2023-10-09T10:50:33;19.60;99.90
12817;DHT22;6473;51.552;6.716;2023-10-09T10:53:09;19.90;99.90
12817;DHT22;6473;51.552;6.716;2023-10-09T10:55:50;20.30;99.90
12817;DHT22;6473;51.552;6.716;2023-10-09T10:58:21;23.10;99.90
12817;DHT22;6473;51.552;6.716;2023-10-09T11:00:54;20.20;99.90
12817;DHT22;6473;51.552;6.716;2023-10-09T11:03:43;20.30;99.90
12817;DHT22;6473;51.552;6.716;2023-10-09T11:06:26;20.40;99.90
12817;DHT22;6473;51.552;6.716;2023-10-09T11:09:02;20.40;99.90
12817;DHT22;6473;51.552;6.716;2023-10-09T11:11:36;20.10;99.90
12817;DHT22;6473;51.552;6.716;2023-10-09T11:14:13;20.10;99.90
12817;DHT22;6473;51.552;6.716;2023-10-09T11:16:41;20.00;99.90
12817;DHT22;6473;51.552;6.716;2023-10-09T11:19:18;20.30;99.90
12817;DHT22;6473;51.552;6.716;2023-10-09T11:22:07;20.40;99.90
12817;DHT22;6473;51.552;6.716;2023-10-09T11:24:55;20.50;99.90
12817;DHT22;6473;51.552;6.716;2023-10-09T11:27:40;20.70;99.90
12817;DHT22;6473;51.552;6.716;2023-10-09T11:30:16;20.90;98.50
12817;DHT22;6473;51.552;6.716;2023-10-09T11:33:04;21.20;98.00
12817;DHT22;6473;51.552;6.716;2023-10-09T11:35:31;21.70;92.90
12817;DHT22;6473;51.552;6.716;2023-10-09T11:38:01;21.80;88.60
12817;DHT22;6473;51.552;6.716;2023-10-09T11:40:46;22.10;83.80
12817;DHT22;6473;51.552;6.716;2023-10-09T11:43:45;22.10;82.00
12817;DHT22;6473;51.552;6.716;2023-10-09T11:46:16;22.40;72.30
12817;DHT22;6473;51.552;6.716;2023-10-09T11:49:04;22.50;74.70
12817;DHT22;6473;51.552;6.716;2023-10-09T11:51:49;22.60;70.00
12817;DHT22;6473;51.552;6.716;2023-10-09T11:54:38;22.70;65.80
12817;DHT22;6473;51.552;6.716;2023-10-09T11:57:04;22.60;64.40
12817;DHT22;6473;51.552;6.716;2023-10-09T11:59:33;22.60;66.50
12817;DHT22;6473;51.552;6.716;2023-10-09T12:02:03;22.50;65.60
12817;DHT22;6473;51.552;6.716;2023-10-09T12:04:30;22.40;68.60
12817;DHT22;6473;51.552;6.716;2023-10-09T12:06:57;22.30;72.80
12817;DHT22;6473;51.552;6.716;2023-10-09T12:09:32;22.10;74.60
12817;DHT22;6473;51.552;6.716;2023-10-09T12:12:02;22.80;75.90
12817;DHT22;6473;51.552;6.716;2023-10-09T12:14:30;22.40;75.00
12817;DHT22;6473;51.552;6.716;2023-10-09T12:16:59;22.30;75.50
12817;DHT22;6473;51.552;6.716;2023-10-09T12:19:32;22.20;72.50
12817;DHT22;6473;51.552;6.716;2023-10-09T12:21:59;21.90;78.10
12817;DHT22;6473;51.552;6.716;2023-10-09T12:24:27;23.20;80.60
12817;DHT22;6473;51.552;6.716;2023-10-09T12:26:54;21.90;80.60
12817;DHT22;6473;51.552;6.716;2023-10-09T12:29:23;22.00;79.00
12817;DHT22;6473;51.552;6.716;2023-10-09T12:31:51;22.10;81.10
12817;DHT22;6473;51.552;6.716;2023-10-09T12:34:23;22.10;80.80
12817;DHT22;6473;51.552;6.716;2023-10-09T12:36:52;21.90;82.80
12817;DHT22;6473;51.552;6.716;2023-10-09T12:39:20;23.50;82.40
12817;DHT22;6473;51.552;6.716;2023-10-09T12:41:47;22.00;81.50
12817;DHT22;6473;51.552;6.716;2023-10-09T12:44:14;22.00;81.60
12817;DHT22;6473;51.552;6.716;2023-10-09T12:46:45;22.00;83.60
12817;DHT22;6473;51.552;6.716;2023-10-09T12:49:18;22.20;82.80
12817;DHT22;6473;51.552;6.716;2023-10-09T12:51:45;22.20;82.00
12817;DHT22;6473;51.552;6.716;2023-10-09T12:54:11;22.10;79.40
12817;DHT22;6473;51.552;6.716;2023-10-09T12:56:40;22.30;80.80
12817;DHT22;6473;51.552;6.716;2023-10-09T12:59:07;22.40;79.40
12817;DHT22;6473;51.552;6.716;2023-10-09T13:01:40;22.40;72.90
12817;DHT22;6473;51.552;6.716;2023-10-09T13:04:11;22.70;69.30
12817;DHT22;6473;51.552;6.716;2023-10-09T13:06:41;22.50;68.20
12817;DHT22;6473;51.552;6.716;2023-10-09T13:09:10;22.50;67.20
12817;DHT22;6473;51.552;6.716;2023-10-09T13:11:39;22.40;69.30
12817;DHT22;6473;51.552;6.716;2023-10-09T13:14:06;22.60;70.10
12817;DHT22;6473;51.552;6.716;2023-10-09T13:16:37;22.30;71.30
12817;DHT22;6473;51.552;6.716;2023-10-09T13:19:04;22.70;69.20
12817;DHT22;6473;51.552;6.716;2023-10-09T13:21:37;23.10;59.30
12817;DHT22;6473;51.552;6.716;2023-10-09T13:24:05;23.00;50.50
12817;DHT22;6473;51.552;6.716;2023-10-09T13:26:38;23.10;48.50
12817;DHT22;6473;51.552;6.716;2023-10-09T13:29:07;23.20;49.90
12817;DHT22;6473;51.552;6.716;2023-10-09T13:31:35;23.20;50.30
12817;DHT22;6473;51.552;6.716;2023-10-09T13:34:04;23.10;54.70
12817;DHT22;6473;51.552;6.716;2023-10-09T13:36:36;22.90;59.30
12817;DHT22;6473;51.552;6.716;2023-10-09T13:39:04;22.90;63.60
12817;DHT22;6473;51.552;6.716;2023-10-09T13:41:59;22.80;60.10
12817;DHT22;6473;51.552;6.716;2023-10-09T13:44:29;22.50;65.70
12817;DHT22;6473;51.552;6.716;2023-10-09T13:46:56;22.40;64.80
12817;DHT22;6473;51.552;6.716;2023-10-09T13:49:23;22.20;68.10
12817;DHT22;6473;51.552;6.716;2023-10-09T13:51:55;21.80;74.60
12817;DHT22;6473;51.552;6.716;2023-10-09T13:54:23;22.00;82.60
12817;DHT22;6473;51.552;6.716;2023-10-09T13:56:54;21.50;91.10
12817;DHT22;6473;51.552;6.716;2023-10-09T13:59:23;21.40;91.70
12817;DHT22;6473;51.552;6.716;2023-10-09T14:01:51;21.40;91.60
12817;DHT22;6473;51.552;6.716;2023-10-09T14:04:20;21.30;93.00
12817;DHT22;6473;51.552;6.716;2023-10-09T14:06:49;21.40;93.50
12817;DHT22;6473;51.552;6.716;2023-10-09T14:09:22;23.80;94.60
12817;DHT22;6473;51.552;6.716;2023-10-09T14:11:57;21.10;95.00
12817;DHT22;6473;51.552;6.716;2023-10-09T14:14:37;21.00;95.60
12817;DHT22;6473;51.552;6.716;2023-10-09T14:17:06;21.10;96.50
12817;DHT22;6473;51.552;6.716;2023-10-09T14:19:38;20.90;96.20
12817;DHT22;6473;51.552;6.716;2023-10-09T14:22:06;20.90;97.70
12817;DHT22;6473;51.552;6.716;2023-10-09T14:24:33;20.90;99.10
12817;DHT22;6473;51.552;6.716;2023-10-09T14:27:01;20.90;99.40
12817;DHT22;6473;51.552;6.716;2023-10-09T14:29:30;20.90;99.30
12817;DHT22;6473;51.552;6.716;2023-10-09T14:31:59;20.90;99.90
12817;DHT22;6473;51.552;6.716;2023-10-09T14:34:28;20.90;99.90
12817;DHT22;6473;51.552;6.716;2023-10-09T14:36:59;20.80;99.90
12817;DHT22;6473;51.552;6.716;2023-10-09T14:39:27;20.70;99.90
12817;DHT22;6473;51.552;6.716;2023-10-09T14:41:55;20.70;99.90
12817;DHT22;6473;51.552;6.716;2023-10-09T14:44:24;21.00;99.90
12817;DHT22;6473;51.552;6.716;2023-10-09T14:46:54;20.50;99.90
12817;DHT22;6473;51.552;6.716;2023-10-09T14:49:22;20.50;99.90
12817;DHT22;6473;51.552;6.716;2023-10-09T14:51:49;21.30;99.90
12817;DHT22;6473;51.552;6.716;2023-10-09T14:54:17;20.50;99.90
12817;DHT22;6473;51.552;6.716;2023-10-09T14:56:44;20.70;99.90
12817;DHT22;6473;51.552;6.716;2023-10-09T14:59:12;20.40;99.90
12817;DHT22;6473;51.552;6.716;2023-10-09T15:01:38;20.30;99.90
12817;DHT22;6473;51.552;6.716;2023-10-09T15:04:05;20.40;99.90
12817;DHT22;6473;51.552;6.716;2023-10-09T15:06:34;22.70;99.90
12817;DHT22;6473;51.552;6.716;2023-10-09T15:09:04;20.30;99.90
12817;DHT22;6473;51.552;6.716;2023-10-09T15:11:35;20.30;99.90
12817;DHT22;6473;51.552;6.716;2023-10-09T15:14:05;20.20;99.90
12817;DHT22;6473;51.552;6.716;2023-10-09T15:16:32;20.20;99.90
12817;DHT22;6473;51.552;6.716;2023-10-09T15:18:59;20.30;99.90
12817;DHT22;6473;51.552;6.716;2023-10-09T15:21:31;20.10;99.90
12817;DHT22;6473;51.552;6.716;2023-10-09T15:24:00;21.50;99.90
12817;DHT22;6473;51.552;6.716;2023-10-09T15:26:27;20.10;99.90
12817;DHT22;6473;51.552;6.716;2023-10-09T15:29:00;20.00;99.90
12817;DHT22;6473;51.552;6.716;2023-10-09T15:31:30;20.00;99.90
12817;DHT22;6473;51.552;6.716;2023-10-09T15:33:58;20.00;99.90
12817;DHT22;6473;51.552;6.716;2023-10-09T15:36:25;20.00;99.90
12817;DHT22;6473;51.552;6.716;2023-10-09T15:38:54;20.00;99.90
12817;DHT22;6473;51.552;6.716;2023-10-09T15:41:27;19.90;99.90
12817;DHT22;6473;51.552;6.716;2023-10-09T15:43:56;20.00;99.90
12817;DHT22;6473;51.552;6.716;2023-10-09T15:46:24;20.00;99.90
12817;DHT22;6473;51.552;6.716;2023-10-09T15:48:51;22.80;99.90
12817;DHT22;6473;51.552;6.716;2023-10-09T15:51:21;19.90;99.90
12817;DHT22;6473;51.552;6.716;2023-10-09T15:53:48;20.00;99.90
12817;DHT22;6473;51.552;6.716;2023-10-09T15:56:17;19.90;99.90
12817;DHT22;6473;51.552;6.716;2023-10-09T15:58:45;20.00;99.90
12817;DHT22;6473;51.552;6.716;2023-10-09T16:01:13;19.90;99.90
12817;DHT22;6473;51.552;6.716;2023-10-09T16:03:41;19.90;99.90
12817;DHT22;6473;51.552;6.716;2023-10-09T16:06:10;20.00;99.90
12817;DHT22;6473;51.552;6.716;2023-10-09T16:08:44;19.90;99.90
12817;DHT22;6473;51.552;6.716;2023-10-09T16:11:11;19.80;99.90
12817;DHT22;6473;51.552;6.716;2023-10-09T16:13:40;19.80;99.90
12817;DHT22;6473;51.552;6.716;2023-10-09T16:16:09;19.80;99.90
12817;DHT22;6473;51.552;6.716;2023-10-09T16:18:38;19.70;99.90
12817;DHT22;6473;51.552;6.716;2023-10-09T16:21:06;19.70;99.90
12817;DHT22;6473;51.552;6.716;2023-10-09T16:23:37;19.70;99.90
12817;DHT22;6473;51.552;6.716;2023-10-09T16:26:05;19.60;99.90
12817;DHT22;6473;51.552;6.716;2023-10-09T16:28:33;19.60;99.90
12817;DHT22;6473;51.552;6.716;2023-10-09T16:31:01;19.60;99.90